sensor_id;sensor_type;location;lat;lon;timestamp;temperature;humidity
24836;DHT22;12915;57.650;12.044;2022-08-01T06:17:45;22.00;99.90
24836;DHT22;12915;57.650;12.044;2022-08-01T06:20:13;22.30;99.90
24836;DHT22;12915;57.650;12.044;2022-08-01T06:22:42;22.20;99.90
24836;DHT22;12915;57.650;12.044;2022-08-01T06:25:12;22.10;99.90
24836;DHT22;12915;57.650;12.044;2022-08-01T06:27:40;22.50;99.90
24836;DHT22;12915;57.650;12.044;2022-08-01T06:30:07;22.70;99.90
24836;DHT22;12915;57.650;12.044;2022-08-01T06:32:35;22.70;99.90
24836;DHT22;12915;57.650;12.044;2022-08-01T06:35:02;22.70;99.90
24836;DHT22;12915;57.650;12.044;2022-08-01T06:37:32;22.60;99.90
24836;DHT22;12915;57.650;12.044;2022-08-01T06:45:10;21.80;99.90
24836;DHT22;12915;57.650;12.044;2022-08-01T06:47:37;21.80;99.90
24836;DHT22;12915;57.650;12.044;2022-08-01T06:50:07;22.00;99.90
24836;DHT22;12915;57.650;12.044;2022-08-01T06:52:37;22.30;99.90
24836;DHT22;12915;57.650;12.044;2022-08-01T06:55:25;22.30;99.90
24836;DHT22;12915;57.650;12.044;2022-08-01T06:57:52;22.10;99.90
24836;DHT22;12915;57.650;12.044;2022-08-01T07:00:21;22.10;99.90
24836;DHT22;12915;57.650;12.044;2022-08-01T07:02:55;22.20;99.90
24836;DHT22;12915;57.650;12.044;2022-08-01T07:05:22;22.30;99.90
24836;DHT22;12915;57.650;12.044;2022-08-01T07:07:48;22.70;99.90
24836;DHT22;12915;57.650;12.044;2022-08-01T07:12:49;22.80;99.90
24836;DHT22;12915;57.650;12.044;2022-08-01T07:15:15;22.70;99.90
24836;DHT22;12915;57.650;12.044;2022-08-01T07:17:47;22.60;99.90
24836;DHT22;12915;57.650;12.044;2022-08-01T07:20:14;22.20;99.90
24836;DHT22;12915;57.650;12.044;2022-08-01T07:22:59;22.20;99.90
24836;DHT22;12915;57.650;12.044;2022-08-01T07:25:31;21.90;99.90
24836;DHT22;12915;57.650;12.044;2022-08-01T07:27:59;22.00;99.90
24836;DHT22;12915;57.650;12.044;2022-08-01T07:30:25;21.80;99.90
24836;DHT22;12915;57.650;12.044;2022-08-01T07:32:51;21.70;99.90
24836;DHT22;12915;57.650;12.044;2022-08-01T07:35:17;21.80;99.90
24836;DHT22;12915;57.650;12.044;2022-08-01T07:50:45;21.50;99.90
24836;DHT22;12915;57.650;12.044;2022-08-01T07:53:17;22.00;99.90
24836;DHT22;12915;57.650;12.044;2022-08-01T07:58:23;22.10;99.90
24836;DHT22;12915;57.650;12.044;2022-08-01T08:04:15;22.20;99.90
24836;DHT22;12915;57.650;12.044;2022-08-01T08:09:22;21.30;99.90
24836;DHT22;12915;57.650;12.044;2022-08-01T08:12:15;21.40;99.90
24836;DHT22;12915;57.650;12.044;2022-08-01T08:14:43;21.60;99.90
24836;DHT22;12915;57.650;12.044;2022-08-01T08:17:15;22.00;99.90
24836;DHT22;12915;57.650;12.044;2022-08-01T08:19:41;22.00;99.90
24836;DHT22;12915;57.650;12.044;2022-08-01T08:22:08;22.00;99.90
24836;DHT22;12915;57.650;12.044;2022-08-01T08:24:37;21.80;99.90
24836;DHT22;12915;57.650;12.044;2022-08-01T08:52:00;22.20;99.90
24836;DHT22;12915;57.650;12.044;2022-08-01T08:54:29;22.40;99.90
24836;DHT22;12915;57.650;12.044;2022-08-01T08:56:58;22.60;99.90
24836;DHT22;12915;57.650;12.044;2022-08-01T08:59:25;22.40;99.90
24836;DHT22;12915;57.650;12.044;2022-08-01T09:01:52;22.10;99.90
24836;DHT22;12915;57.650;12.044;2022-08-01T09:08:06;21.80;99.90
24836;DHT22;12915;57.650;12.044;2022-08-01T09:10:33;21.90;99.90
24836;DHT22;12915;57.650;12.044;2022-08-01T09:13:11;21.60;99.90
24836;DHT22;12915;57.650;12.044;2022-08-01T09:15:41;21.30;99.90
24836;DHT22;12915;57.650;12.044;2022-08-01T09:18:25;21.20;99.90
24836;DHT22;12915;57.650;12.044;2022-08-01T09:23:33;21.90;99.90
24836;DHT22;12915;57.650;12.044;2022-08-01T09:26:30;22.10;99.90
24836;DHT22;12915;57.650;12.044;2022-08-01T09:29:03;22.20;99.90
24836;DHT22;12915;57.650;12.044;2022-08-01T09:31:40;21.80;99.90
24836;DHT22;12915;57.650;12.044;2022-08-01T09:34:07;21.70;99.90
24836;DHT22;12915;57.650;12.044;2022-08-01T09:36:54;21.90;99.90
24836;DHT22;12915;57.650;12.044;2022-08-01T09:39:29;21.70;99.90
24836;DHT22;12915;57.650;12.044;2022-08-01T09:42:26;22.10;99.90
24836;DHT22;12915;57.650;12.044;2022-08-01T09:44:52;22.20;99.90
24836;DHT22;12915;57.650;12.044;2022-08-01T09:47:37;22.70;99.90
24836;DHT22;12915;57.650;12.044;2022-08-01T10:06:23;22.30;99.90
24836;DHT22;12915;57.650;12.044;2022-08-01T10:08:49;22.40;99.90
24836;DHT22;12915;57.650;12.044;2022-08-01T10:11:14;22.30;99.90
24836;DHT22;12915;57.650;12.044;2022-08-01T10:13:42;22.10;99.90
24836;DHT22;12915;57.650;12.044;2022-08-01T10:35:34;21.90;99.90
24836;DHT22;12915;57.650;12.044;2022-08-01T10:38:07;21.70;99.90
24836;DHT22;12915;57.650;12.044;2022-08-01T10:40:34;21.60;99.90
24836;DHT22;12915;57.650;12.044;2022-08-01T10:45:36;21.80;99.90
24836;DHT22;12915;57.650;12.044;2022-08-01T10:53:23;22.40;99.90
24836;DHT22;12915;57.650;12.044;2022-08-01T12:26:43;22.30;99.90
24836;DHT22;12915;57.650;12.044;2022-08-01T12:29:30;22.50;99.90
24836;DHT22;12915;57.650;12.044;2022-08-01T12:45:36;22.40;99.90
24836;DHT22;12915;57.650;12.044;2022-08-01T12:48:08;22.70;99.90
24836;DHT22;12915;57.650;12.044;2022-08-01T12:50:55;22.80;99.90
24836;DHT22;12915;57.650;12.044;2022-08-01T12:53:36;22.90;99.90
24836;DHT22;12915;57.650;12.044;2022-08-01T12:56:04;22.90;99.90
24836;DHT22;12915;57.650;12.044;2022-08-01T12:58:36;23.10;99.90
24836;DHT22;12915;57.650;12.044;2022-08-01T13:06:14;23.30;99.90
24836;DHT22;12915;57.650;12.044;2022-08-01T13:08:46;23.30;99.90
24836;DHT22;12915;57.650;12.044;2022-08-01T13:19:40;23.00;99.90
24836;DHT22;12915;57.650;12.044;2022-08-01T13:25:32;22.50;99.90
24836;DHT22;12915;57.650;12.044;2022-08-01T13:33:11;22.70;99.90
24836;DHT22;12915;57.650;12.044;2022-08-01T13:35:39;22.90;99.90
24836;DHT22;12915;57.650;12.044;2022-08-01T13:38:08;23.00;99.90
24836;DHT22;12915;57.650;12.044;2022-08-01T13:40:34;23.00;99.90
24836;DHT22;12915;57.650;12.044;2022-08-01T13:43:15;23.10;99.90
24836;DHT22;12915;57.650;12.044;2022-08-01T13:58:39;23.30;99.90
24836;DHT22;12915;57.650;12.044;2022-08-01T14:01:10;23.10;99.90
24836;DHT22;12915;57.650;12.044;2022-08-01T14:06:20;23.20;99.90
24836;DHT22;12915;57.650;12.044;2022-08-01T14:16:49;23.00;99.90
24836;DHT22;12915;57.650;12.044;2022-08-01T14:19:14;23.10;99.90
24836;DHT22;12915;57.650;12.044;2022-08-01T14:29:31;23.50;99.90
24836;DHT22;12915;57.650;12.044;2022-08-01T14:55:18;27.80;99.90
24836;DHT22;12915;57.650;12.044;2022-08-01T15:15:23;27.00;99.90
24836;DHT22;12915;57.650;12.044;2022-08-01T16:07:02;27.10;99.90
24836;DHT22;12915;57.650;12.044;2022-08-01T16:09:28;26.30;99.90
24836;DHT22;12915;57.650;12.044;2022-08-01T16:37:47;27.90;99.90
24836;DHT22;12915;57.650;12.044;2022-08-01T16:53:11;28.40;99.90
24836;DHT22;12915;57.650;12.044;2022-08-01T16:58:28;27.70;99.90
24836;DHT22;12915;57.650;12.044;2022-08-01T17:03:30;27.30;99.90
24836;DHT22;12915;57.650;12.044;2022-08-01T17:12:01;28.10;99.90
24836;DHT22;12915;57.650;12.044;2022-08-01T17:14:28;27.70;99.90
24836;DHT22;12915;57.650;12.044;2022-08-01T17:16:57;27.10;99.90
24836;DHT22;12915;57.650;12.044;2022-08-01T19:24:14;20.10;99.90
24836;DHT22;12915;57.650;12.044;2022-08-01T19:26:55;20.20;99.90
24836;DHT22;12915;57.650;12.044;2022-08-01T20:04:21;19.90;99.90
24836;DHT22;12915;57.650;12.044;2022-08-01T20:06:54;19.90;99.90
24836;DHT22;12915;57.650;12.044;2022-08-01T20:15:56;19.80;99.90
24836;DHT22;12915;57.650;12.044;2022-08-01T20:20:58;19.70;99.90
24836;DHT22;12915;57.650;12.044;2022-08-01T20:23:27;19.70;99.90
24836;DHT22;12915;57.650;12.044;2022-08-01T20:25:57;19.70;99.90
24836;DHT22;12915;57.650;12.044;2022-08-01T20:28:49;19.60;99.90
24836;DHT22;12915;57.650;12.044;2022-08-01T20:31:16;19.60;99.90
24836;DHT22;12915;57.650;12.044;2022-08-01T20:33:47;19.60;99.90
24836;DHT22;12915;57.650;12.044;2022-08-01T20:36:16;19.40;99.90
24836;DHT22;12915;57.650;12.044;2022-08-01T20:38:46;19.50;99.90
24836;DHT22;12915;57.650;12.044;2022-08-01T20:41:13;19.40;99.90
24836;DHT22;12915;57.650;12.044;2022-08-01T20:43:40;19.30;99.90
24836;DHT22;12915;57.650;12.044;2022-08-01T20:46:08;19.20;99.90
24836;DHT22;12915;57.650;12.044;2022-08-01T20:48:51;19.30;99.90
24836;DHT22;12915;57.650;12.044;2022-08-01T20:58:03;19.20;99.90
24836;DHT22;12915;57.650;12.044;2022-08-01T21:00:32;18.90;99.90
24836;DHT22;12915;57.650;12.044;2022-08-01T21:25:40;19.10;99.90
24836;DHT22;12915;57.650;12.044;2022-08-01T21:28:08;18.90;99.90
24836;DHT22;12915;57.650;12.044;2022-08-01T21:34:03;18.80;99.90
24836;DHT22;12915;57.650;12.044;2022-08-01T21:37:03;18.70;99.90
24836;DHT22;12915;57.650;12.044;2022-08-01T21:39:35;18.80;99.90
24836;DHT22;12915;57.650;12.044;2022-08-01T21:42:07;18.80;99.90
24836;DHT22;12915;57.650;12.044;2022-08-01T21:44:46;18.70;99.90
24836;DHT22;12915;57.650;12.044;2022-08-01T21:47:42;18.60;99.90
24836;DHT22;12915;57.650;12.044;2022-08-01T21:53:48;18.70;99.90
24836;DHT22;12915;57.650;12.044;2022-08-01T23:10:29;18.70;99.90
24836;DHT22;12915;57.650;12.044;2022-08-01T23:41:27;18.70;99.90
24836;DHT22;12915;57.650;12.044;2022-08-01T23:43:54;18.70;99.90
24836;DHT22;12915;57.650;12.044;2022-08-01T23:46:25;18.80;99.90
24836;DHT22;12915;57.650;12.044;2022-08-01T23:48:54;18.80;99.90
24836;DHT22;12915;57.650;12.044;2022-08-01T23:51:21;18.90;99.90
24836;DHT22;12915;57.650;12.044;2022-08-01T23:53:51;18.80;99.90
24836;DHT22;12915;57.650;12.044;2022-08-01T23:56:20;18.70;99.90
24836;DHT22;12915;57.650;12.044;2022-08-01T23:58:48;18.60;99.90
